sensor_id;sensor_type;location;lat;lon;timestamp;P1;durP1;ratioP1;P2;durP2;ratioP2
30571;SDS011;17348;50.948;10.696;2023-04-06T00:01:18;15.70;;;7.53;;
30571;SDS011;17348;50.948;10.696;2023-04-06T00:04:20;14.00;;;7.70;;
30571;SDS011;17348;50.948;10.696;2023-04-06T00:07:23;18.60;;;8.03;;
30571;SDS011;17348;50.948;10.696;2023-04-06T00:10:25;20.03;;;8.23;;
30571;SDS011;17348;50.948;10.696;2023-04-06T00:13:28;20.20;;;8.27;;
30571;SDS011;17348;50.948;10.696;2023-04-06T00:16:32;15.27;;;8.03;;
30571;SDS011;17348;50.948;10.696;2023-04-06T00:19:34;18.73;;;8.33;;
30571;SDS011;17348;50.948;10.696;2023-04-06T00:22:36;22.53;;;10.10;;
30571;SDS011;17348;50.948;10.696;2023-04-06T00:25:39;14.53;;;8.10;;
30571;SDS011;17348;50.948;10.696;2023-04-06T00:28:41;15.03;;;7.77;;
30571;SDS011;17348;50.948;10.696;2023-04-06T00:31:45;16.63;;;8.27;;
30571;SDS011;17348;50.948;10.696;2023-04-06T00:34:47;18.70;;;7.50;;
30571;SDS011;17348;50.948;10.696;2023-04-06T00:37:50;17.70;;;7.73;;
30571;SDS011;17348;50.948;10.696;2023-04-06T00:40:52;15.90;;;7.43;;
30571;SDS011;17348;50.948;10.696;2023-04-06T00:43:55;16.57;;;8.03;;
30571;SDS011;17348;50.948;10.696;2023-04-06T00:46:59;17.33;;;7.57;;
30571;SDS011;17348;50.948;10.696;2023-04-06T00:50:01;18.87;;;8.47;;
30571;SDS011;17348;50.948;10.696;2023-04-06T00:53:04;17.07;;;7.70;;
30571;SDS011;17348;50.948;10.696;2023-04-06T00:56:07;16.00;;;8.03;;
30571;SDS011;17348;50.948;10.696;2023-04-06T00:59:10;16.43;;;7.57;;
30571;SDS011;17348;50.948;10.696;2023-04-06T01:02:14;16.87;;;7.70;;
30571;SDS011;17348;50.948;10.696;2023-04-06T01:05:16;23.17;;;6.87;;
30571;SDS011;17348;50.948;10.696;2023-04-06T01:08:19;12.30;;;7.17;;
30571;SDS011;17348;50.948;10.696;2023-04-06T01:11:21;16.50;;;7.13;;
30571;SDS011;17348;50.948;10.696;2023-04-06T01:14:24;18.83;;;6.97;;
30571;SDS011;17348;50.948;10.696;2023-04-06T01:17:28;12.73;;;7.07;;
30571;SDS011;17348;50.948;10.696;2023-04-06T01:20:31;17.70;;;6.60;;
30571;SDS011;17348;50.948;10.696;2023-04-06T01:23:34;15.67;;;7.10;;
30571;SDS011;17348;50.948;10.696;2023-04-06T01:26:38;13.87;;;6.37;;
30571;SDS011;17348;50.948;10.696;2023-04-06T01:29:40;12.03;;;6.23;;
30571;SDS011;17348;50.948;10.696;2023-04-06T01:32:46;15.97;;;6.80;;
30571;SDS011;17348;50.948;10.696;2023-04-06T01:35:48;18.63;;;7.60;;
30571;SDS011;17348;50.948;10.696;2023-04-06T01:38:52;14.73;;;7.10;;
30571;SDS011;17348;50.948;10.696;2023-04-06T01:41:54;14.20;;;5.73;;
30571;SDS011;17348;50.948;10.696;2023-04-06T01:44:56;17.83;;;6.77;;
30571;SDS011;17348;50.948;10.696;2023-04-06T01:47:59;18.10;;;6.23;;
30571;SDS011;17348;50.948;10.696;2023-04-06T01:51:01;24.20;;;7.63;;
30571;SDS011;17348;50.948;10.696;2023-04-06T01:54:05;12.57;;;6.43;;
30571;SDS011;17348;50.948;10.696;2023-04-06T01:57:08;14.70;;;6.13;;
30571;SDS011;17348;50.948;10.696;2023-04-06T02:00:11;11.33;;;6.30;;
30571;SDS011;17348;50.948;10.696;2023-04-06T02:03:15;23.33;;;7.93;;
30571;SDS011;17348;50.948;10.696;2023-04-06T02:06:17;15.20;;;6.57;;
30571;SDS011;17348;50.948;10.696;2023-04-06T02:09:21;18.27;;;7.37;;
30571;SDS011;17348;50.948;10.696;2023-04-06T02:12:23;15.20;;;7.10;;
30571;SDS011;17348;50.948;10.696;2023-04-06T02:15:26;14.47;;;6.67;;
30571;SDS011;17348;50.948;10.696;2023-04-06T02:18:31;13.63;;;6.07;;
30571;SDS011;17348;50.948;10.696;2023-04-06T02:21:34;11.50;;;5.90;;
30571;SDS011;17348;50.948;10.696;2023-04-06T02:24:38;11.60;;;6.23;;
30571;SDS011;17348;50.948;10.696;2023-04-06T02:27:41;15.73;;;6.47;;
30571;SDS011;17348;50.948;10.696;2023-04-06T02:30:43;14.73;;;5.80;;
30571;SDS011;17348;50.948;10.696;2023-04-06T02:33:45;13.73;;;5.73;;
30571;SDS011;17348;50.948;10.696;2023-04-06T02:36:48;15.43;;;6.00;;
30571;SDS011;17348;50.948;10.696;2023-04-06T02:39:52;12.33;;;6.03;;
30571;SDS011;17348;50.948;10.696;2023-04-06T02:42:54;17.17;;;5.63;;
30571;SDS011;17348;50.948;10.696;2023-04-06T02:45:56;18.03;;;6.33;;
30571;SDS011;17348;50.948;10.696;2023-04-06T02:48:59;17.47;;;6.40;;
30571;SDS011;17348;50.948;10.696;2023-04-06T02:52:01;13.80;;;6.60;;
30571;SDS011;17348;50.948;10.696;2023-04-06T02:55:06;12.00;;;6.63;;
30571;SDS011;17348;50.948;10.696;2023-04-06T02:58:09;12.83;;;6.30;;
30571;SDS011;17348;50.948;10.696;2023-04-06T03:01:11;11.10;;;5.90;;
30571;SDS011;17348;50.948;10.696;2023-04-06T03:04:14;10.67;;;6.03;;
30571;SDS011;17348;50.948;10.696;2023-04-06T03:07:16;14.77;;;6.73;;
30571;SDS011;17348;50.948;10.696;2023-04-06T03:10:20;9.63;;;5.77;;
30571;SDS011;17348;50.948;10.696;2023-04-06T03:13:22;10.20;;;5.77;;
30571;SDS011;17348;50.948;10.696;2023-04-06T03:16:25;10.17;;;6.13;;
30571;SDS011;17348;50.948;10.696;2023-04-06T03:19:27;11.83;;;6.40;;
30571;SDS011;17348;50.948;10.696;2023-04-06T03:22:29;19.70;;;7.07;;
30571;SDS011;17348;50.948;10.696;2023-04-06T03:25:33;13.87;;;7.27;;
30571;SDS011;17348;50.948;10.696;2023-04-06T03:28:36;11.43;;;6.17;;
30571;SDS011;17348;50.948;10.696;2023-04-06T03:31:38;19.27;;;6.27;;
30571;SDS011;17348;50.948;10.696;2023-04-06T03:34:41;11.73;;;5.70;;
30571;SDS011;17348;50.948;10.696;2023-04-06T03:37:43;8.30;;;5.37;;
30571;SDS011;17348;50.948;10.696;2023-04-06T03:40:50;12.97;;;6.30;;
30571;SDS011;17348;50.948;10.696;2023-04-06T03:43:52;11.33;;;5.50;;
30571;SDS011;17348;50.948;10.696;2023-04-06T03:46:55;12.37;;;6.63;;
30571;SDS011;17348;50.948;10.696;2023-04-06T03:49:57;14.03;;;6.27;;
30571;SDS011;17348;50.948;10.696;2023-04-06T03:53:00;17.50;;;6.90;;
30571;SDS011;17348;50.948;10.696;2023-04-06T03:56:05;14.33;;;7.17;;
30571;SDS011;17348;50.948;10.696;2023-04-06T03:59:07;19.47;;;6.43;;
30571;SDS011;17348;50.948;10.696;2023-04-06T04:02:10;12.80;;;6.60;;
30571;SDS011;17348;50.948;10.696;2023-04-06T04:05:12;11.63;;;5.97;;
30571;SDS011;17348;50.948;10.696;2023-04-06T04:08:15;12.60;;;5.93;;
30571;SDS011;17348;50.948;10.696;2023-04-06T04:11:19;16.60;;;5.30;;
30571;SDS011;17348;50.948;10.696;2023-04-06T04:14:21;16.93;;;5.87;;
30571;SDS011;17348;50.948;10.696;2023-04-06T04:17:24;12.87;;;5.63;;
30571;SDS011;17348;50.948;10.696;2023-04-06T04:20:33;15.48;;;5.70;;
30571;SDS011;17348;50.948;10.696;2023-04-06T04:23:36;12.33;;;5.90;;
30571;SDS011;17348;50.948;10.696;2023-04-06T04:26:40;13.17;;;5.57;;
30571;SDS011;17348;50.948;10.696;2023-04-06T04:29:42;10.33;;;5.33;;
30571;SDS011;17348;50.948;10.696;2023-04-06T04:32:45;27.00;;;5.70;;
30571;SDS011;17348;50.948;10.696;2023-04-06T04:35:48;13.37;;;6.27;;
30571;SDS011;17348;50.948;10.696;2023-04-06T04:38:50;11.93;;;5.13;;
30571;SDS011;17348;50.948;10.696;2023-04-06T04:41:54;14.40;;;6.17;;
30571;SDS011;17348;50.948;10.696;2023-04-06T04:44:57;20.63;;;6.50;;
30571;SDS011;17348;50.948;10.696;2023-04-06T04:47:59;22.93;;;7.53;;
30571;SDS011;17348;50.948;10.696;2023-04-06T04:51:02;9.97;;;6.10;;
30571;SDS011;17348;50.948;10.696;2023-04-06T04:54:05;16.67;;;6.80;;
30571;SDS011;17348;50.948;10.696;2023-04-06T04:57:09;18.23;;;6.50;;
30571;SDS011;17348;50.948;10.696;2023-04-06T05:00:12;14.90;;;6.93;;
30571;SDS011;17348;50.948;10.696;2023-04-06T05:03:17;12.83;;;6.60;;
30571;SDS011;17348;50.948;10.696;2023-04-06T05:06:23;20.50;;;7.50;;
30571;SDS011;17348;50.948;10.696;2023-04-06T05:09:26;21.50;;;7.93;;
30571;SDS011;17348;50.948;10.696;2023-04-06T05:12:29;19.13;;;6.87;;
30571;SDS011;17348;50.948;10.696;2023-04-06T05:15:32;21.17;;;7.30;;
30571;SDS011;17348;50.948;10.696;2023-04-06T05:18:35;19.87;;;8.73;;
30571;SDS011;17348;50.948;10.696;2023-04-06T05:21:38;20.73;;;8.33;;
30571;SDS011;17348;50.948;10.696;2023-04-06T05:24:40;28.57;;;7.90;;
30571;SDS011;17348;50.948;10.696;2023-04-06T05:27:44;15.83;;;7.67;;
30571;SDS011;17348;50.948;10.696;2023-04-06T05:30:47;16.60;;;7.33;;
30571;SDS011;17348;50.948;10.696;2023-04-06T05:33:49;20.70;;;8.43;;
30571;SDS011;17348;50.948;10.696;2023-04-06T05:36:52;14.23;;;8.40;;
30571;SDS011;17348;50.948;10.696;2023-04-06T05:39:54;29.10;;;8.43;;
30571;SDS011;17348;50.948;10.696;2023-04-06T05:42:58;16.00;;;7.60;;
30571;SDS011;17348;50.948;10.696;2023-04-06T05:46:01;20.83;;;6.70;;
30571;SDS011;17348;50.948;10.696;2023-04-06T05:49:03;36.97;;;8.33;;
30571;SDS011;17348;50.948;10.696;2023-04-06T05:52:06;19.47;;;7.67;;
30571;SDS011;17348;50.948;10.696;2023-04-06T05:55:10;25.60;;;6.97;;
30571;SDS011;17348;50.948;10.696;2023-04-06T05:58:14;13.83;;;6.83;;
30571;SDS011;17348;50.948;10.696;2023-04-06T06:01:17;15.77;;;6.63;;
30571;SDS011;17348;50.948;10.696;2023-04-06T06:04:20;17.73;;;7.93;;
30571;SDS011;17348;50.948;10.696;2023-04-06T06:07:23;26.03;;;7.40;;
30571;SDS011;17348;50.948;10.696;2023-04-06T06:10:25;14.90;;;7.47;;
30571;SDS011;17348;50.948;10.696;2023-04-06T06:13:29;16.90;;;6.80;;
30571;SDS011;17348;50.948;10.696;2023-04-06T06:16:32;18.60;;;6.83;;
30571;SDS011;17348;50.948;10.696;2023-04-06T06:19:34;15.33;;;7.53;;
30571;SDS011;17348;50.948;10.696;2023-04-06T06:22:37;22.53;;;7.93;;
30571;SDS011;17348;50.948;10.696;2023-04-06T06:25:40;12.73;;;6.70;;
30571;SDS011;17348;50.948;10.696;2023-04-06T06:28:44;16.47;;;7.40;;
30571;SDS011;17348;50.948;10.696;2023-04-06T06:31:47;15.80;;;6.93;;
30571;SDS011;17348;50.948;10.696;2023-04-06T06:34:49;17.73;;;7.57;;
30571;SDS011;17348;50.948;10.696;2023-04-06T06:37:52;11.90;;;7.10;;
30571;SDS011;17348;50.948;10.696;2023-04-06T06:40:54;21.05;;;7.22;;
30571;SDS011;17348;50.948;10.696;2023-04-06T06:43:58;13.75;;;6.80;;
30571;SDS011;17348;50.948;10.696;2023-04-06T06:47:01;12.55;;;6.95;;
30571;SDS011;17348;50.948;10.696;2023-04-06T06:50:04;24.10;;;8.07;;
30571;SDS011;17348;50.948;10.696;2023-04-06T06:53:08;15.07;;;8.25;;
30571;SDS011;17348;50.948;10.696;2023-04-06T06:56:11;21.35;;;8.02;;
30571;SDS011;17348;50.948;10.696;2023-04-06T06:59:15;15.18;;;7.82;;
30571;SDS011;17348;50.948;10.696;2023-04-06T07:02:18;16.55;;;8.77;;
30571;SDS011;17348;50.948;10.696;2023-04-06T07:05:20;17.30;;;7.93;;
30571;SDS011;17348;50.948;10.696;2023-04-06T07:08:23;16.27;;;7.13;;
30571;SDS011;17348;50.948;10.696;2023-04-06T07:11:26;13.07;;;6.43;;
30571;SDS011;17348;50.948;10.696;2023-04-06T07:14:30;23.60;;;8.15;;
30571;SDS011;17348;50.948;10.696;2023-04-06T07:17:32;11.70;;;6.40;;
30571;SDS011;17348;50.948;10.696;2023-04-06T07:20:35;23.52;;;8.82;;
30571;SDS011;17348;50.948;10.696;2023-04-06T07:23:37;23.52;;;10.32;;
30571;SDS011;17348;50.948;10.696;2023-04-06T07:26:40;24.00;;;9.07;;
30571;SDS011;17348;50.948;10.696;2023-04-06T07:29:44;23.13;;;9.75;;
30571;SDS011;17348;50.948;10.696;2023-04-06T07:32:47;17.77;;;9.15;;
30571;SDS011;17348;50.948;10.696;2023-04-06T07:35:50;19.20;;;8.40;;
30571;SDS011;17348;50.948;10.696;2023-04-06T07:38:53;19.38;;;8.80;;
30571;SDS011;17348;50.948;10.696;2023-04-06T07:41:55;20.05;;;7.70;;
30571;SDS011;17348;50.948;10.696;2023-04-06T07:44:59;11.80;;;6.47;;
30571;SDS011;17348;50.948;10.696;2023-04-06T07:48:01;14.27;;;7.03;;
30571;SDS011;17348;50.948;10.696;2023-04-06T07:51:04;13.57;;;6.70;;
30571;SDS011;17348;50.948;10.696;2023-04-06T07:54:09;13.70;;;6.93;;
30571;SDS011;17348;50.948;10.696;2023-04-06T07:57:11;15.38;;;7.35;;
30571;SDS011;17348;50.948;10.696;2023-04-06T08:00:16;15.60;;;6.82;;
30571;SDS011;17348;50.948;10.696;2023-04-06T08:03:18;13.82;;;6.90;;
30571;SDS011;17348;50.948;10.696;2023-04-06T08:06:25;15.05;;;6.13;;
30571;SDS011;17348;50.948;10.696;2023-04-06T08:09:28;17.17;;;6.47;;
30571;SDS011;17348;50.948;10.696;2023-04-06T08:12:31;12.80;;;6.70;;
30571;SDS011;17348;50.948;10.696;2023-04-06T08:15:35;12.57;;;6.07;;
30571;SDS011;17348;50.948;10.696;2023-04-06T08:18:38;19.77;;;5.93;;
30571;SDS011;17348;50.948;10.696;2023-04-06T08:21:40;15.00;;;6.60;;
30571;SDS011;17348;50.948;10.696;2023-04-06T08:24:43;17.58;;;6.15;;
30571;SDS011;17348;50.948;10.696;2023-04-06T08:27:45;17.80;;;6.10;;
30571;SDS011;17348;50.948;10.696;2023-04-06T08:30:49;14.27;;;5.43;;
30571;SDS011;17348;50.948;10.696;2023-04-06T08:33:52;18.20;;;6.13;;
30571;SDS011;17348;50.948;10.696;2023-04-06T08:36:54;14.57;;;5.22;;
30571;SDS011;17348;50.948;10.696;2023-04-06T08:39:57;8.25;;;4.32;;
30571;SDS011;17348;50.948;10.696;2023-04-06T08:42:59;14.35;;;5.07;;
30571;SDS011;17348;50.948;10.696;2023-04-06T08:46:10;11.85;;;4.97;;
30571;SDS011;17348;50.948;10.696;2023-04-06T08:49:13;13.93;;;5.35;;
30571;SDS011;17348;50.948;10.696;2023-04-06T08:52:18;10.00;;;5.05;;
30571;SDS011;17348;50.948;10.696;2023-04-06T08:55:22;9.60;;;4.90;;
30571;SDS011;17348;50.948;10.696;2023-04-06T08:58:25;16.70;;;5.10;;
30571;SDS011;17348;50.948;10.696;2023-04-06T09:01:34;13.68;;;4.40;;
30571;SDS011;17348;50.948;10.696;2023-04-06T09:04:41;9.30;;;4.57;;
30571;SDS011;17348;50.948;10.696;2023-04-06T09:07:45;9.90;;;5.95;;
30571;SDS011;17348;50.948;10.696;2023-04-06T09:10:47;12.27;;;5.47;;
30571;SDS011;17348;50.948;10.696;2023-04-06T09:13:52;13.50;;;5.75;;
30571;SDS011;17348;50.948;10.696;2023-04-06T09:16:57;10.10;;;5.05;;
30571;SDS011;17348;50.948;10.696;2023-04-06T09:20:00;10.18;;;4.95;;
30571;SDS011;17348;50.948;10.696;2023-04-06T09:23:03;9.20;;;4.63;;
30571;SDS011;17348;50.948;10.696;2023-04-06T09:26:06;12.35;;;5.15;;
30571;SDS011;17348;50.948;10.696;2023-04-06T09:29:21;11.13;;;5.15;;
30571;SDS011;17348;50.948;10.696;2023-04-06T09:32:26;8.27;;;4.55;;
30571;SDS011;17348;50.948;10.696;2023-04-06T09:35:28;13.30;;;5.18;;
30571;SDS011;17348;50.948;10.696;2023-04-06T09:38:31;14.95;;;5.32;;
30571;SDS011;17348;50.948;10.696;2023-04-06T09:41:34;13.65;;;5.60;;
30571;SDS011;17348;50.948;10.696;2023-04-06T09:44:37;16.33;;;5.97;;
30571;SDS011;17348;50.948;10.696;2023-04-06T09:47:42;8.75;;;4.55;;
30571;SDS011;17348;50.948;10.696;2023-04-06T09:50:45;8.35;;;4.72;;
30571;SDS011;17348;50.948;10.696;2023-04-06T09:53:50;11.00;;;5.50;;
30571;SDS011;17348;50.948;10.696;2023-04-06T09:56:56;10.50;;;5.18;;
30571;SDS011;17348;50.948;10.696;2023-04-06T10:00:03;12.18;;;5.07;;
30571;SDS011;17348;50.948;10.696;2023-04-06T10:03:13;10.95;;;5.38;;
30571;SDS011;17348;50.948;10.696;2023-04-06T10:06:23;11.30;;;5.22;;
30571;SDS011;17348;50.948;10.696;2023-04-06T10:09:28;10.63;;;5.07;;
30571;SDS011;17348;50.948;10.696;2023-04-06T10:12:36;10.38;;;6.20;;
30571;SDS011;17348;50.948;10.696;2023-04-06T10:15:40;11.20;;;5.32;;
30571;SDS011;17348;50.948;10.696;2023-04-06T10:18:46;11.00;;;5.45;;
30571;SDS011;17348;50.948;10.696;2023-04-06T10:21:53;9.02;;;4.95;;
30571;SDS011;17348;50.948;10.696;2023-04-06T10:24:58;13.32;;;6.65;;
30571;SDS011;17348;50.948;10.696;2023-04-06T10:28:01;14.43;;;5.18;;
30571;SDS011;17348;50.948;10.696;2023-04-06T10:31:07;11.50;;;5.50;;
30571;SDS011;17348;50.948;10.696;2023-04-06T10:34:11;17.75;;;4.93;;
30571;SDS011;17348;50.948;10.696;2023-04-06T10:37:15;9.40;;;5.82;;
30571;SDS011;17348;50.948;10.696;2023-04-06T10:40:19;12.27;;;5.20;;
30571;SDS011;17348;50.948;10.696;2023-04-06T10:43:24;10.00;;;5.25;;
30571;SDS011;17348;50.948;10.696;2023-04-06T10:46:26;9.13;;;5.43;;
30571;SDS011;17348;50.948;10.696;2023-04-06T10:49:31;10.40;;;5.97;;
30571;SDS011;17348;50.948;10.696;2023-04-06T10:52:37;11.57;;;5.97;;
30571;SDS011;17348;50.948;10.696;2023-04-06T10:55:39;11.85;;;6.53;;
30571;SDS011;17348;50.948;10.696;2023-04-06T10:58:45;9.55;;;5.13;;
30571;SDS011;17348;50.948;10.696;2023-04-06T11:01:49;11.75;;;6.30;;
30571;SDS011;17348;50.948;10.696;2023-04-06T11:04:56;14.38;;;6.20;;
30571;SDS011;17348;50.948;10.696;2023-04-06T11:07:59;12.45;;;6.32;;
30571;SDS011;17348;50.948;10.696;2023-04-06T11:11:05;11.15;;;6.15;;
30571;SDS011;17348;50.948;10.696;2023-04-06T11:14:09;14.38;;;5.72;;
30571;SDS011;17348;50.948;10.696;2023-04-06T11:17:11;12.50;;;6.07;;
30571;SDS011;17348;50.948;10.696;2023-04-06T11:20:15;11.55;;;5.95;;
30571;SDS011;17348;50.948;10.696;2023-04-06T11:23:23;17.33;;;6.53;;
30571;SDS011;17348;50.948;10.696;2023-04-06T11:26:26;11.85;;;6.25;;
30571;SDS011;17348;50.948;10.696;2023-04-06T11:29:30;17.45;;;6.00;;
30571;SDS011;17348;50.948;10.696;2023-04-06T11:32:39;9.30;;;5.70;;
30571;SDS011;17348;50.948;10.696;2023-04-06T11:35:44;8.77;;;5.30;;
30571;SDS011;17348;50.948;10.696;2023-04-06T11:38:46;16.17;;;5.03;;
30571;SDS011;17348;50.948;10.696;2023-04-06T11:41:49;11.95;;;5.32;;
30571;SDS011;17348;50.948;10.696;2023-04-06T11:44:53;13.82;;;5.28;;
30571;SDS011;17348;50.948;10.696;2023-04-06T11:47:56;10.77;;;5.18;;
30571;SDS011;17348;50.948;10.696;2023-04-06T11:51:01;13.60;;;4.93;;
30571;SDS011;17348;50.948;10.696;2023-04-06T11:54:05;8.85;;;4.82;;
30571;SDS011;17348;50.948;10.696;2023-04-06T11:57:08;7.85;;;4.35;;
30571;SDS011;17348;50.948;10.696;2023-04-06T12:00:11;9.20;;;5.15;;
30571;SDS011;17348;50.948;10.696;2023-04-06T12:03:14;10.10;;;5.32;;
30571;SDS011;17348;50.948;10.696;2023-04-06T12:06:18;10.90;;;5.60;;
30571;SDS011;17348;50.948;10.696;2023-04-06T12:09:21;14.40;;;5.93;;
30571;SDS011;17348;50.948;10.696;2023-04-06T12:12:23;13.20;;;5.72;;
30571;SDS011;17348;50.948;10.696;2023-04-06T12:15:26;15.50;;;6.55;;
30571;SDS011;17348;50.948;10.696;2023-04-06T12:18:30;14.82;;;6.25;;
30571;SDS011;17348;50.948;10.696;2023-04-06T12:21:34;11.60;;;6.10;;
30571;SDS011;17348;50.948;10.696;2023-04-06T12:24:39;10.88;;;5.63;;
30571;SDS011;17348;50.948;10.696;2023-04-06T12:27:41;13.48;;;6.45;;
30571;SDS011;17348;50.948;10.696;2023-04-06T12:30:44;20.20;;;5.90;;
30571;SDS011;17348;50.948;10.696;2023-04-06T12:33:47;28.70;;;5.78;;
30571;SDS011;17348;50.948;10.696;2023-04-06T12:36:51;13.25;;;5.10;;
30571;SDS011;17348;50.948;10.696;2023-04-06T12:39:53;9.70;;;5.00;;
30571;SDS011;17348;50.948;10.696;2023-04-06T12:42:56;9.80;;;5.93;;
30571;SDS011;17348;50.948;10.696;2023-04-06T12:45:58;11.60;;;5.65;;
30571;SDS011;17348;50.948;10.696;2023-04-06T12:49:01;11.27;;;6.28;;
30571;SDS011;17348;50.948;10.696;2023-04-06T12:52:05;11.77;;;6.18;;
30571;SDS011;17348;50.948;10.696;2023-04-06T12:55:08;12.52;;;5.60;;
30571;SDS011;17348;50.948;10.696;2023-04-06T12:58:11;10.70;;;5.70;;
30571;SDS011;17348;50.948;10.696;2023-04-06T13:01:13;9.77;;;5.57;;
30571;SDS011;17348;50.948;10.696;2023-04-06T13:04:16;12.63;;;5.15;;
30571;SDS011;17348;50.948;10.696;2023-04-06T13:07:20;9.55;;;5.07;;
30571;SDS011;17348;50.948;10.696;2023-04-06T13:10:22;11.77;;;5.50;;
30571;SDS011;17348;50.948;10.696;2023-04-06T13:13:25;9.00;;;5.40;;
30571;SDS011;17348;50.948;10.696;2023-04-06T13:16:28;10.63;;;5.63;;
30571;SDS011;17348;50.948;10.696;2023-04-06T13:19:31;11.70;;;4.80;;
30571;SDS011;17348;50.948;10.696;2023-04-06T13:22:35;10.52;;;5.20;;
30571;SDS011;17348;50.948;10.696;2023-04-06T13:25:37;8.95;;;4.45;;
30571;SDS011;17348;50.948;10.696;2023-04-06T13:28:40;9.63;;;4.60;;
30571;SDS011;17348;50.948;10.696;2023-04-06T13:31:42;8.82;;;4.72;;
30571;SDS011;17348;50.948;10.696;2023-04-06T13:34:45;10.82;;;5.22;;
30571;SDS011;17348;50.948;10.696;2023-04-06T13:37:50;13.45;;;5.85;;
30571;SDS011;17348;50.948;10.696;2023-04-06T13:40:53;12.48;;;5.85;;
30571;SDS011;17348;50.948;10.696;2023-04-06T13:43:56;10.70;;;5.85;;
30571;SDS011;17348;50.948;10.696;2023-04-06T13:46:59;12.52;;;6.28;;
30571;SDS011;17348;50.948;10.696;2023-04-06T13:50:01;13.02;;;6.22;;
30571;SDS011;17348;50.948;10.696;2023-04-06T13:53:06;9.88;;;4.72;;
30571;SDS011;17348;50.948;10.696;2023-04-06T13:56:08;8.75;;;4.85;;
30571;SDS011;17348;50.948;10.696;2023-04-06T13:59:11;12.88;;;5.43;;
30571;SDS011;17348;50.948;10.696;2023-04-06T14:02:13;8.77;;;4.72;;
30571;SDS011;17348;50.948;10.696;2023-04-06T14:05:16;16.15;;;5.55;;
30571;SDS011;17348;50.948;10.696;2023-04-06T14:08:20;18.50;;;5.40;;
30571;SDS011;17348;50.948;10.696;2023-04-06T14:11:22;8.63;;;5.68;;
30571;SDS011;17348;50.948;10.696;2023-04-06T14:14:27;8.82;;;5.15;;
30571;SDS011;17348;50.948;10.696;2023-04-06T14:17:29;11.55;;;5.25;;
30571;SDS011;17348;50.948;10.696;2023-04-06T14:20:32;10.05;;;5.47;;
30571;SDS011;17348;50.948;10.696;2023-04-06T14:23:35;9.00;;;4.65;;
30571;SDS011;17348;50.948;10.696;2023-04-06T14:26:38;9.50;;;5.50;;
30571;SDS011;17348;50.948;10.696;2023-04-06T14:29:41;11.20;;;5.68;;
30571;SDS011;17348;50.948;10.696;2023-04-06T14:32:44;14.80;;;5.45;;
30571;SDS011;17348;50.948;10.696;2023-04-06T14:35:46;8.90;;;5.00;;
30571;SDS011;17348;50.948;10.696;2023-04-06T14:38:50;9.30;;;4.95;;
30571;SDS011;17348;50.948;10.696;2023-04-06T14:41:52;6.45;;;4.43;;
30571;SDS011;17348;50.948;10.696;2023-04-06T14:44:55;10.52;;;4.38;;
30571;SDS011;17348;50.948;10.696;2023-04-06T14:47:57;8.73;;;5.32;;
30571;SDS011;17348;50.948;10.696;2023-04-06T14:51:00;10.98;;;5.78;;
30571;SDS011;17348;50.948;10.696;2023-04-06T14:54:04;10.23;;;5.40;;
30571;SDS011;17348;50.948;10.696;2023-04-06T14:57:06;12.50;;;5.18;;
30571;SDS011;17348;50.948;10.696;2023-04-06T15:00:09;10.63;;;4.72;;
30571;SDS011;17348;50.948;10.696;2023-04-06T15:03:13;7.45;;;4.82;;
30571;SDS011;17348;50.948;10.696;2023-04-06T15:06:18;9.32;;;4.60;;
30571;SDS011;17348;50.948;10.696;2023-04-06T15:09:22;9.57;;;4.90;;
30571;SDS011;17348;50.948;10.696;2023-04-06T15:12:25;10.23;;;5.00;;
30571;SDS011;17348;50.948;10.696;2023-04-06T15:15:30;10.25;;;5.30;;
30571;SDS011;17348;50.948;10.696;2023-04-06T15:18:32;10.77;;;5.35;;
30571;SDS011;17348;50.948;10.696;2023-04-06T15:21:35;9.43;;;5.30;;
30571;SDS011;17348;50.948;10.696;2023-04-06T15:24:39;9.95;;;5.60;;
30571;SDS011;17348;50.948;10.696;2023-04-06T15:27:41;12.50;;;5.75;;
30571;SDS011;17348;50.948;10.696;2023-04-06T15:30:43;9.60;;;5.63;;
30571;SDS011;17348;50.948;10.696;2023-04-06T15:33:46;8.50;;;4.95;;
30571;SDS011;17348;50.948;10.696;2023-04-06T15:36:48;9.00;;;4.85;;
30571;SDS011;17348;50.948;10.696;2023-04-06T15:39:53;13.43;;;4.80;;
30571;SDS011;17348;50.948;10.696;2023-04-06T15:42:55;11.88;;;5.15;;
30571;SDS011;17348;50.948;10.696;2023-04-06T15:45:58;9.57;;;5.72;;
30571;SDS011;17348;50.948;10.696;2023-04-06T15:49:00;10.25;;;5.60;;
30571;SDS011;17348;50.948;10.696;2023-04-06T15:52:03;8.73;;;5.05;;
30571;SDS011;17348;50.948;10.696;2023-04-06T15:55:08;10.40;;;5.38;;
30571;SDS011;17348;50.948;10.696;2023-04-06T15:58:10;8.85;;;5.38;;
30571;SDS011;17348;50.948;10.696;2023-04-06T16:01:13;7.70;;;5.07;;
30571;SDS011;17348;50.948;10.696;2023-04-06T16:04:16;8.60;;;5.32;;
30571;SDS011;17348;50.948;10.696;2023-04-06T16:07:18;13.48;;;5.53;;
30571;SDS011;17348;50.948;10.696;2023-04-06T16:10:22;8.65;;;5.13;;
30571;SDS011;17348;50.948;10.696;2023-04-06T16:13:24;9.30;;;5.55;;
30571;SDS011;17348;50.948;10.696;2023-04-06T16:16:27;7.22;;;4.70;;
30571;SDS011;17348;50.948;10.696;2023-04-06T16:19:29;11.23;;;5.40;;
30571;SDS011;17348;50.948;10.696;2023-04-06T16:22:31;16.85;;;5.95;;
30571;SDS011;17348;50.948;10.696;2023-04-06T16:25:35;10.88;;;5.65;;
30571;SDS011;17348;50.948;10.696;2023-04-06T16:28:38;10.57;;;5.15;;
30571;SDS011;17348;50.948;10.696;2023-04-06T16:31:40;11.95;;;5.50;;
30571;SDS011;17348;50.948;10.696;2023-04-06T16:34:46;13.18;;;5.55;;
30571;SDS011;17348;50.948;10.696;2023-04-06T16:37:48;10.38;;;5.20;;
30571;SDS011;17348;50.948;10.696;2023-04-06T16:40:59;10.25;;;5.15;;
30571;SDS011;17348;50.948;10.696;2023-04-06T16:44:02;11.50;;;5.05;;
30571;SDS011;17348;50.948;10.696;2023-04-06T16:47:04;11.60;;;6.18;;
30571;SDS011;17348;50.948;10.696;2023-04-06T16:50:07;9.15;;;5.53;;
30571;SDS011;17348;50.948;10.696;2023-04-06T16:53:10;8.68;;;4.80;;
30571;SDS011;17348;50.948;10.696;2023-04-06T16:56:14;18.50;;;7.13;;
30571;SDS011;17348;50.948;10.696;2023-04-06T16:59:16;8.95;;;4.28;;
30571;SDS011;17348;50.948;10.696;2023-04-06T17:02:19;10.20;;;5.50;;
30571;SDS011;17348;50.948;10.696;2023-04-06T17:05:21;8.88;;;4.60;;
30571;SDS011;17348;50.948;10.696;2023-04-06T17:08:26;7.75;;;4.88;;
30571;SDS011;17348;50.948;10.696;2023-04-06T17:11:30;10.77;;;5.78;;
30571;SDS011;17348;50.948;10.696;2023-04-06T17:14:32;12.82;;;5.18;;
30571;SDS011;17348;50.948;10.696;2023-04-06T17:17:35;16.15;;;6.93;;
30571;SDS011;17348;50.948;10.696;2023-04-06T17:20:38;14.30;;;6.43;;
30571;SDS011;17348;50.948;10.696;2023-04-06T17:23:40;16.80;;;6.13;;
30571;SDS011;17348;50.948;10.696;2023-04-06T17:26:44;14.02;;;6.20;;
30571;SDS011;17348;50.948;10.696;2023-04-06T17:29:47;20.40;;;6.75;;
30571;SDS011;17348;50.948;10.696;2023-04-06T17:32:51;13.98;;;6.95;;
30571;SDS011;17348;50.948;10.696;2023-04-06T17:35:53;12.90;;;6.13;;
30571;SDS011;17348;50.948;10.696;2023-04-06T17:38:56;11.40;;;5.93;;
30571;SDS011;17348;50.948;10.696;2023-04-06T17:41:59;17.58;;;6.80;;
30571;SDS011;17348;50.948;10.696;2023-04-06T17:45:04;11.52;;;5.85;;
30571;SDS011;17348;50.948;10.696;2023-04-06T17:48:07;15.77;;;7.10;;
30571;SDS011;17348;50.948;10.696;2023-04-06T17:51:12;16.38;;;7.22;;
30571;SDS011;17348;50.948;10.696;2023-04-06T17:54:14;11.02;;;6.13;;